Archival Weather

Václav Havel Intl Apt

Prague, Czechia (LKPR)

Report from: Monday, May 29, 2023 2:00 PM CEST
Current time: Sunday, July 14, 2024 1:46 PM CEST

Current weather – Weather history – Daily summaries
Weather forecast

Temperature22.0°C (71.6°F)
Dew point4.0°C (39.2°F)
Winds 8 kts (4.1 m/s, 9.2 mph) Vrb
Winds variableWinds variable from North (10°) to East-Southeast (110°)
Clouds Sky clear
Altimeter30.12 in.Hg (1020 mB)
Relative humidity31 %
Density altitude712 ft. (217 m)
Remarks Ceiling and visibility OK
No significant changes expected in the next two hours
Flight conditions Visual Meteorological Conditions
Raw dataLKPR 291200Z 05008KT 010V110 CAVOK 22/04 Q1020 NOSIG
An error has occurred. This application may no longer respond until reloaded. Reload 🗙